createdAt,value
2018-03-18T00:02:07.936Z,-3.26
2018-03-18T00:04:36.355Z,-3.29
2018-03-18T00:07:04.650Z,-3.24
2018-03-18T00:09:33.016Z,-3.21
2018-03-18T00:12:01.345Z,-3.25
2018-03-18T00:14:29.731Z,-3.29
2018-03-18T00:16:58.063Z,-3.35
2018-03-18T00:19:27.167Z,-3.34
2018-03-18T00:21:56.303Z,-3.34
2018-03-18T00:24:24.683Z,-3.39
2018-03-18T00:26:53.213Z,-3.39
2018-03-18T00:29:22.352Z,-3.48
2018-03-18T00:31:51.445Z,-3.50
2018-03-18T00:34:19.779Z,-3.64
2018-03-18T00:36:48.897Z,-3.61
2018-03-18T00:39:17.261Z,-3.60
2018-03-18T00:41:46.387Z,-3.68
2018-03-18T00:44:14.765Z,-3.75
2018-03-18T00:46:43.887Z,-3.71
2018-03-18T00:49:13.029Z,-3.71
2018-03-18T00:52:00.168Z,-3.72
2018-03-18T00:54:29.872Z,-3.72
2018-03-18T00:56:59.319Z,-3.75
2018-03-18T00:59:27.680Z,-3.72
2018-03-18T01:01:56.037Z,-3.73
2018-03-18T01:04:24.371Z,-3.78
2018-03-18T01:06:54.209Z,-3.76
2018-03-18T01:09:22.556Z,-3.85
2018-03-18T01:11:50.895Z,-3.80
2018-03-18T01:14:19.269Z,-3.84
2018-03-18T01:16:47.593Z,-3.83
2018-03-18T01:19:15.996Z,-3.86
2018-03-18T01:21:45.102Z,-3.99
2018-03-18T01:24:13.424Z,-3.99
2018-03-18T01:26:41.800Z,-4.06
2018-03-18T01:29:10.115Z,-3.99
2018-03-18T01:31:39.216Z,-4.08
2018-03-18T01:34:08.709Z,-4.08
2018-03-18T01:36:37.827Z,-4.00
2018-03-18T01:39:06.123Z,-4.03
2018-03-18T01:41:34.490Z,-4.10
2018-03-18T01:44:02.836Z,-4.19
2018-03-18T01:46:31.972Z,-4.09
2018-03-18T01:49:00.356Z,-4.12
2018-03-18T01:51:28.721Z,-4.21
2018-03-18T01:53:57.100Z,-4.25
2018-03-18T01:56:26.244Z,-4.29
2018-03-18T01:58:54.566Z,-4.30
2018-03-18T02:01:22.889Z,-4.35
2018-03-18T02:03:51.253Z,-4.31
2018-03-18T02:06:19.571Z,-4.34
2018-03-18T02:08:48.704Z,-4.33
2018-03-18T02:11:17.040Z,-4.38
2018-03-18T02:13:45.396Z,-4.44
2018-03-18T02:16:13.742Z,-4.49
2018-03-18T02:18:42.106Z,-4.54
2018-03-18T02:21:10.444Z,-4.56
2018-03-18T02:23:38.784Z,-4.67
2018-03-18T02:26:07.549Z,-4.57
2018-03-18T02:28:35.904Z,-4.66
2018-03-18T02:31:05.046Z,-4.63
2018-03-18T02:33:33.387Z,-4.69
2018-03-18T02:36:02.522Z,-4.70
2018-03-18T02:38:30.861Z,-4.70
2018-03-18T02:40:59.229Z,-4.77
2018-03-18T02:43:28.337Z,-4.75
2018-03-18T02:45:56.708Z,-4.80
2018-03-18T02:48:26.399Z,-4.78
2018-03-18T02:50:55.526Z,-4.85
2018-03-18T02:53:23.869Z,-4.86
2018-03-18T02:55:52.212Z,-4.85
2018-03-18T02:58:20.572Z,-4.81
2018-03-18T03:00:48.902Z,-4.90
2018-03-18T03:03:17.251Z,-4.91
2018-03-18T03:05:45.584Z,-4.92
2018-03-18T03:08:13.926Z,-4.92
2018-03-18T03:10:43.014Z,-4.96
2018-03-18T03:13:11.368Z,-5.01
2018-03-18T03:15:39.699Z,-5.00
2018-03-18T03:18:08.828Z,-5.05
2018-03-18T03:20:37.180Z,-4.94
2018-03-18T03:23:06.320Z,-4.99
2018-03-18T03:25:34.660Z,-4.96
2018-03-18T03:28:03.037Z,-5.05
2018-03-18T03:30:31.427Z,-5.03
2018-03-18T03:32:59.769Z,-4.98
2018-03-18T03:35:28.128Z,-5.21
2018-03-18T03:37:56.477Z,-5.02
2018-03-18T03:40:24.840Z,-5.15
2018-03-18T03:42:53.212Z,-5.21
2018-03-18T03:45:21.530Z,-5.15
2018-03-18T03:47:49.900Z,-5.18
2018-03-18T03:50:18.256Z,-5.09
2018-03-18T03:52:46.606Z,-5.08
2018-03-18T03:55:14.960Z,-5.32
2018-03-18T03:57:43.315Z,-5.25
2018-03-18T04:00:12.404Z,-5.31
2018-03-18T04:02:41.137Z,-5.34
2018-03-18T04:05:10.252Z,-5.31
2018-03-18T04:07:38.573Z,-5.33
2018-03-18T04:10:06.937Z,-5.35
2018-03-18T04:12:35.250Z,-5.34
2018-03-18T04:15:03.611Z,-5.38
2018-03-18T04:17:31.942Z,-5.44
2018-03-18T04:20:00.295Z,-5.34
2018-03-18T04:22:29.392Z,-5.49
2018-03-18T04:24:58.520Z,-5.43
2018-03-18T04:27:26.860Z,-5.37
2018-03-18T04:29:55.610Z,-5.38
2018-03-18T04:32:23.987Z,-5.39
2018-03-18T04:34:52.320Z,-5.45
2018-03-18T04:37:20.655Z,-5.45
2018-03-18T04:39:49.032Z,-5.42
2018-03-18T04:42:17.387Z,-5.39
2018-03-18T04:44:45.727Z,-5.44
2018-03-18T04:47:14.867Z,-5.44
2018-03-18T04:49:43.203Z,-5.53
2018-03-18T04:52:11.556Z,-5.47
2018-03-18T04:54:40.695Z,-5.52
2018-03-18T04:57:09.037Z,-5.44
2018-03-18T04:59:38.163Z,-5.55
2018-03-18T05:02:06.518Z,-5.52
2018-03-18T05:04:36.560Z,-5.51
2018-03-18T05:07:04.913Z,-5.54
2018-03-18T05:09:33.242Z,-5.60
2018-03-18T05:12:01.609Z,-5.51
2018-03-18T05:14:29.957Z,-5.60
2018-03-18T05:16:58.306Z,-5.39
2018-03-18T05:19:27.390Z,-5.41
2018-03-18T05:21:55.732Z,-5.36
2018-03-18T05:24:24.052Z,-5.51
2018-03-18T05:26:52.401Z,-5.50
2018-03-18T05:29:21.480Z,-5.49
2018-03-18T05:31:49.834Z,-5.37
2018-03-18T05:34:18.177Z,-5.27
2018-03-18T05:36:46.531Z,-5.34
2018-03-18T05:39:14.861Z,-5.47
2018-03-18T05:41:43.987Z,-5.38
2018-03-18T05:44:12.346Z,-5.33
2018-03-18T05:46:40.673Z,-5.26
2018-03-18T05:49:09.051Z,-5.24
2018-03-18T05:51:37.407Z,-5.17
2018-03-18T05:54:05.757Z,-5.17
2018-03-18T05:56:34.520Z,-5.05
2018-03-18T05:59:03.634Z,-5.02
2018-03-18T06:01:32.004Z,-5.09
2018-03-18T06:04:01.103Z,-5.07
2018-03-18T06:06:29.470Z,-5.07
2018-03-18T06:08:58.578Z,-4.99
2018-03-18T06:11:26.975Z,-4.92
2018-03-18T06:13:55.319Z,-4.82
2018-03-18T06:16:24.395Z,-4.61
2018-03-18T06:18:52.773Z,-4.68
2018-03-18T06:21:21.128Z,-4.58
2018-03-18T06:23:49.498Z,-4.56
2018-03-18T06:26:17.850Z,-4.25
2018-03-18T06:28:46.199Z,-4.35
2018-03-18T06:31:15.323Z,-4.27
2018-03-18T06:33:43.686Z,-4.44
2018-03-18T06:36:12.033Z,-4.47
2018-03-18T06:38:41.134Z,-4.28
2018-03-18T06:41:09.472Z,-4.29
2018-03-18T06:43:37.786Z,-4.32
2018-03-18T06:46:06.133Z,-4.45
2018-03-18T06:48:34.468Z,-4.39
2018-03-18T06:51:02.829Z,-4.33
2018-03-18T06:53:31.924Z,-4.53
2018-03-18T06:56:01.040Z,-4.50
2018-03-18T06:58:29.382Z,-4.59
2018-03-18T07:00:57.735Z,-4.40
2018-03-18T07:03:26.149Z,-4.28
2018-03-18T07:05:54.555Z,-4.11
2018-03-18T07:08:23.394Z,-4.17
2018-03-18T07:10:51.768Z,-4.16
2018-03-18T07:13:20.142Z,-4.34
2018-03-18T07:15:48.473Z,-4.24
2018-03-18T07:18:16.814Z,-4.11
2018-03-18T07:20:45.209Z,-4.26
2018-03-18T07:23:13.626Z,-4.05
2018-03-18T07:25:41.967Z,-3.73
2018-03-18T07:28:11.090Z,-3.62
2018-03-18T07:30:39.434Z,-3.59
2018-03-18T07:33:07.840Z,-3.88
2018-03-18T07:35:36.124Z,-3.63
2018-03-18T07:38:04.502Z,-3.65
2018-03-18T07:40:34.728Z,-3.85
2018-03-18T07:43:03.105Z,-3.84
2018-03-18T07:45:31.453Z,-3.66
2018-03-18T07:48:00.580Z,-3.65
2018-03-18T07:50:28.992Z,-3.60
2018-03-18T07:52:57.273Z,-3.72
2018-03-18T07:55:25.639Z,-3.46
2018-03-18T07:57:53.979Z,-3.68
2018-03-18T08:00:22.401Z,-3.38
2018-03-18T08:02:50.749Z,-3.29
2018-03-18T08:05:19.129Z,-3.00
2018-03-18T08:07:47.468Z,-2.73
2018-03-18T08:10:16.990Z,-2.88
2018-03-18T08:12:45.320Z,-3.04
2018-03-18T08:15:13.652Z,-3.15
2018-03-18T08:17:42.030Z,-3.23
2018-03-18T08:20:10.973Z,-3.15
2018-03-18T08:22:39.353Z,-3.02
2018-03-18T08:25:09.197Z,-3.21
2018-03-18T08:27:37.568Z,-2.99
2018-03-18T08:30:06.718Z,-3.06
2018-03-18T08:32:35.062Z,-3.07
2018-03-18T08:35:04.206Z,-3.06
2018-03-18T08:37:32.537Z,-2.57
2018-03-18T08:40:02.061Z,-2.67
2018-03-18T08:42:30.792Z,-2.48
2018-03-18T08:44:59.900Z,-2.60
2018-03-18T08:47:29.034Z,-2.32
2018-03-18T08:49:57.770Z,-2.18
2018-03-18T08:52:26.611Z,-2.19
2018-03-18T08:54:55.085Z,-2.41
2018-03-18T08:57:23.454Z,-2.27
2018-03-18T08:59:52.044Z,-2.24
2018-03-18T09:02:20.760Z,-2.28
2018-03-18T09:04:49.109Z,-2.40
2018-03-18T09:07:18.707Z,-2.18
2018-03-18T09:09:47.075Z,-2.35
2018-03-18T09:12:15.468Z,-2.27
2018-03-18T09:14:43.832Z,-2.28
2018-03-18T09:17:12.187Z,-2.32
2018-03-18T09:19:40.548Z,-2.26
2018-03-18T09:22:08.904Z,-2.33
2018-03-18T09:24:37.286Z,-2.22
2018-03-18T09:27:05.644Z,-2.03
2018-03-18T09:29:33.969Z,-2.03
2018-03-18T09:32:02.327Z,-1.99
2018-03-18T09:34:30.640Z,-1.98
2018-03-18T09:36:59.785Z,-1.73
2018-03-18T09:39:28.149Z,-1.88
2018-03-18T09:41:56.499Z,-1.85
2018-03-18T09:44:25.640Z,-1.82
2018-03-18T09:46:53.989Z,-1.68
2018-03-18T09:49:22.333Z,-1.74
2018-03-18T09:51:50.663Z,-1.52
2018-03-18T09:54:18.995Z,-1.54
2018-03-18T09:56:48.124Z,-1.53
2018-03-18T09:59:16.757Z,-1.61
2018-03-18T10:01:45.899Z,-1.54
2018-03-18T10:04:14.281Z,-1.48
2018-03-18T10:06:42.669Z,-1.17
2018-03-18T10:09:11.227Z,-1.26
2018-03-18T10:11:39.574Z,-0.87
2018-03-18T10:14:07.999Z,-1.39
2018-03-18T10:16:36.311Z,-1.23
2018-03-18T10:19:04.662Z,-1.42
2018-03-18T10:21:32.997Z,-1.22
2018-03-18T10:24:02.167Z,-0.98
2018-03-18T10:26:30.508Z,-0.73
2018-03-18T10:28:58.851Z,-0.89
2018-03-18T10:31:27.960Z,-1.24
2018-03-18T10:33:56.321Z,-1.28
2018-03-18T10:36:25.461Z,-1.22
2018-03-18T10:38:53.824Z,-1.23
2018-03-18T10:41:22.331Z,-0.94
2018-03-18T10:43:50.677Z,-0.98
2018-03-18T10:46:19.814Z,-0.95
2018-03-18T10:48:48.183Z,-0.96
2018-03-18T10:51:16.834Z,-1.12
2018-03-18T10:53:45.386Z,-1.09
2018-03-18T10:56:13.768Z,-1.08
2018-03-18T10:58:42.963Z,-0.93
2018-03-18T11:01:17.919Z,-0.78
2018-03-18T11:03:47.024Z,-0.81
2018-03-18T11:06:15.379Z,-0.95
2018-03-18T11:08:44.713Z,-0.92
2018-03-18T11:11:13.051Z,-0.74
2018-03-18T11:13:41.388Z,-0.79
2018-03-18T11:16:09.847Z,-0.51
2018-03-18T11:18:41.526Z,-0.49
2018-03-18T11:21:09.878Z,-0.51
2018-03-18T11:23:38.545Z,-0.53
2018-03-18T11:26:06.899Z,-0.31
2018-03-18T11:28:36.346Z,-0.20
2018-03-18T11:31:05.528Z,-0.53
2018-03-18T11:33:33.911Z,-0.50
2018-03-18T11:36:02.250Z,-0.39
2018-03-18T11:38:32.128Z,-0.11
2018-03-18T11:41:00.473Z,-0.08
2018-03-18T11:43:28.879Z,-0.37
2018-03-18T11:45:57.476Z,-0.31
2018-03-18T11:48:26.096Z,-0.05
2018-03-18T11:50:55.548Z,-0.20
2018-03-18T11:53:27.013Z,-0.26
2018-03-18T11:55:55.717Z,-0.06
2018-03-18T11:58:24.393Z,-0.16
2018-03-18T12:00:52.970Z,-0.15
2018-03-18T12:03:22.302Z,-0.18
2018-03-18T12:05:55.163Z,0.01
2018-03-18T12:08:41.274Z,0.04
2018-03-18T12:11:10.639Z,-0.17
2018-03-18T12:13:39.060Z,-0.28
2018-03-18T12:16:08.220Z,-0.05
2018-03-18T12:18:37.369Z,0.07
2018-03-18T12:21:06.770Z,0.06
2018-03-18T12:23:35.500Z,-0.06
2018-03-18T12:26:09.678Z,-0.05
2018-03-18T12:28:38.207Z,-0.12
2018-03-18T12:31:06.598Z,-0.02
2018-03-18T12:33:46.762Z,0.14
2018-03-18T12:36:16.067Z,0.14
2018-03-18T12:38:47.031Z,0.02
2018-03-18T12:41:16.433Z,0.14
2018-03-18T12:43:44.907Z,0.15
2018-03-18T12:46:13.539Z,0.28
2018-03-18T12:48:41.955Z,0.45
2018-03-18T12:51:18.262Z,0.13
2018-03-18T12:53:46.914Z,-0.07
2018-03-18T12:56:15.489Z,0.12
2018-03-18T12:58:44.763Z,0.18
2018-03-18T13:01:13.878Z,0.21
2018-03-18T13:03:42.871Z,0.29
2018-03-18T13:06:12.269Z,0.19
2018-03-18T13:08:41.885Z,0.28
2018-03-18T13:11:12.745Z,0.17
2018-03-18T13:13:42.669Z,0.23
2018-03-18T13:16:11.560Z,0.17
2018-03-18T13:18:39.935Z,0.40
2018-03-18T13:21:08.936Z,0.44
2018-03-18T13:23:37.343Z,0.32
2018-03-18T13:26:06.103Z,0.28
2018-03-18T13:28:34.447Z,0.47
2018-03-18T13:31:02.867Z,0.42
2018-03-18T13:33:32.064Z,0.43
2018-03-18T13:36:01.235Z,0.55
2018-03-18T13:38:29.611Z,0.51
2018-03-18T13:43:33.930Z,0.51
2018-03-18T13:46:02.633Z,0.56
2018-03-18T13:48:31.071Z,0.64
2018-03-18T13:50:59.651Z,0.64
2018-03-18T13:53:28.393Z,0.64
2018-03-18T13:55:57.530Z,0.60
2018-03-18T13:58:26.239Z,0.51
2018-03-18T14:00:54.625Z,0.60
2018-03-18T14:03:23.152Z,0.67
2018-03-18T14:05:53.955Z,0.50
2018-03-18T14:08:22.490Z,0.38
2018-03-18T14:10:52.341Z,0.38
2018-03-18T14:13:21.620Z,0.43
2018-03-18T14:15:50.065Z,0.41
2018-03-18T14:18:18.460Z,0.55
2018-03-18T14:20:46.787Z,0.49
2018-03-18T14:23:17.387Z,0.55
2018-03-18T14:25:45.878Z,0.54
2018-03-18T14:28:14.773Z,0.69
2018-03-18T14:30:43.854Z,0.64
2018-03-18T14:33:12.226Z,0.61
2018-03-18T14:35:40.886Z,0.49
2018-03-18T14:38:10.287Z,0.53
2018-03-18T14:40:38.606Z,0.63
2018-03-18T14:43:07.606Z,0.51
2018-03-18T14:45:36.236Z,0.52
2018-03-18T14:48:04.614Z,0.55
2018-03-18T14:50:32.969Z,0.37
2018-03-18T14:53:01.930Z,0.41
2018-03-18T14:55:31.240Z,0.43
2018-03-18T14:58:01.343Z,0.41
2018-03-18T15:00:29.650Z,0.56
2018-03-18T15:02:57.982Z,0.72
2018-03-18T15:05:26.658Z,0.50
2018-03-18T15:07:55.083Z,0.51
2018-03-18T15:10:24.217Z,0.54
2018-03-18T15:12:52.526Z,0.60
2018-03-18T15:15:21.010Z,0.58
2018-03-18T15:17:50.080Z,0.75
2018-03-18T15:20:18.804Z,0.55
2018-03-18T15:22:48.273Z,0.54
2018-03-18T15:25:16.698Z,0.49
2018-03-18T15:27:45.066Z,0.48
2018-03-18T15:30:14.160Z,0.29
2018-03-18T15:32:42.540Z,0.34
2018-03-18T15:35:10.874Z,0.35
2018-03-18T15:37:39.250Z,0.37
2018-03-18T15:40:07.576Z,0.28
2018-03-18T15:42:36.890Z,0.27
2018-03-18T15:45:05.242Z,0.30
2018-03-18T15:47:33.803Z,0.19
2018-03-18T15:50:02.175Z,0.24
2018-03-18T15:52:30.541Z,0.23
2018-03-18T15:54:58.959Z,0.13
2018-03-18T15:57:27.303Z,0.13
2018-03-18T15:59:55.661Z,0.14
2018-03-18T16:02:26.685Z,0.07
2018-03-18T16:04:55.610Z,0.14
2018-03-18T16:07:24.798Z,0.03
2018-03-18T16:09:53.155Z,0.08
2018-03-18T16:12:21.485Z,0.03
2018-03-18T16:14:49.872Z,-0.03
2018-03-18T16:17:18.242Z,-0.07
2018-03-18T16:19:46.566Z,-0.07
2018-03-18T16:22:14.931Z,-0.07
2018-03-18T16:24:44.038Z,-0.04
2018-03-18T16:27:12.384Z,-0.20
2018-03-18T16:29:58.586Z,-0.24
2018-03-18T16:32:27.668Z,-0.31
2018-03-18T16:34:56.858Z,-0.34
2018-03-18T16:37:25.254Z,-0.48
2018-03-18T16:39:54.372Z,-0.53
2018-03-18T16:42:23.036Z,-0.66
2018-03-18T16:44:53.041Z,-0.70
2018-03-18T16:47:21.390Z,-0.71
2018-03-18T16:49:49.748Z,-0.67
2018-03-18T16:52:18.099Z,-0.36
2018-03-18T16:54:47.220Z,-0.51
2018-03-18T16:57:15.690Z,-0.72
2018-03-18T16:59:44.039Z,-0.87
2018-03-18T17:02:12.495Z,-0.86
2018-03-18T17:04:40.827Z,-0.89
2018-03-18T17:07:09.193Z,-1.04
2018-03-18T17:09:37.513Z,-1.10
2018-03-18T17:12:05.883Z,-0.92
2018-03-18T17:14:36.632Z,-0.87
2018-03-18T17:17:05.011Z,-1.02
2018-03-18T17:19:33.347Z,-0.91
2018-03-18T17:22:01.677Z,-0.83
2018-03-18T17:24:30.028Z,-1.06
2018-03-18T17:26:58.374Z,-1.29
2018-03-18T17:29:26.747Z,-1.41
2018-03-18T17:31:56.005Z,-1.45
2018-03-18T17:34:25.573Z,-1.54
2018-03-18T17:36:53.925Z,-1.48
2018-03-18T17:39:22.287Z,-1.53
2018-03-18T17:41:51.370Z,-1.61
2018-03-18T17:44:37.405Z,-1.69
2018-03-18T17:47:24.146Z,-1.84
2018-03-18T17:50:10.261Z,-1.67
2018-03-18T17:52:56.749Z,-1.69
2018-03-18T17:55:31.183Z,-1.75
2018-03-18T17:57:59.557Z,-1.88
2018-03-18T18:00:27.876Z,-1.92
2018-03-18T18:02:56.233Z,-1.88
2018-03-18T18:05:24.578Z,-1.93
2018-03-18T18:07:53.438Z,-2.04
2018-03-18T18:10:23.283Z,-1.99
2018-03-18T18:12:51.602Z,-2.08
2018-03-18T18:15:20.009Z,-2.09
2018-03-18T18:17:48.359Z,-2.09
2018-03-18T18:20:18.449Z,-2.00
2018-03-18T18:22:46.817Z,-1.99
2018-03-18T18:25:15.163Z,-2.09
2018-03-18T18:27:44.305Z,-2.17
2018-03-18T18:30:12.733Z,-2.15
2018-03-18T18:32:41.059Z,-2.20
2018-03-18T18:35:09.467Z,-2.24
2018-03-18T18:37:38.585Z,-2.28
2018-03-18T18:40:07.685Z,-2.30
2018-03-18T18:42:36.025Z,-2.31
2018-03-18T18:45:05.155Z,-2.27
2018-03-18T18:47:34.241Z,-2.45
2018-03-18T18:50:03.008Z,-2.45
2018-03-18T18:52:32.134Z,-2.56
2018-03-18T18:55:01.644Z,-2.48
2018-03-18T18:57:30.035Z,-2.55
2018-03-18T18:59:58.393Z,-2.46
2018-03-18T19:02:26.736Z,-2.34
2018-03-18T19:04:55.866Z,-2.36
2018-03-18T19:07:24.194Z,-2.39
2018-03-18T19:09:52.571Z,-2.52
2018-03-18T19:12:20.896Z,-2.58
2018-03-18T19:14:49.249Z,-2.61
2018-03-18T19:17:18.354Z,-2.55
2018-03-18T19:19:46.716Z,-2.35
2018-03-18T19:22:15.848Z,-2.51
2018-03-18T19:24:44.206Z,-2.61
2018-03-18T19:27:12.535Z,-2.59
2018-03-18T19:29:40.912Z,-2.45
2018-03-18T19:32:09.236Z,-2.60
2018-03-18T19:34:39.395Z,-2.58
2018-03-18T19:37:07.753Z,-2.48
2018-03-18T19:39:36.069Z,-2.65
2018-03-18T19:42:04.443Z,-2.55
2018-03-18T19:44:32.825Z,-2.59
2018-03-18T19:47:01.219Z,-2.57
2018-03-18T19:49:29.532Z,-2.61
2018-03-18T19:51:57.896Z,-2.59
2018-03-18T19:54:27.000Z,-2.72
2018-03-18T19:56:56.168Z,-2.74
2018-03-18T19:59:26.264Z,-2.72
2018-03-18T20:01:54.643Z,-2.67
2018-03-18T20:04:22.980Z,-2.74
2018-03-18T20:06:53.071Z,-2.75
2018-03-18T20:09:22.778Z,-2.92
2018-03-18T20:11:51.921Z,-2.77
2018-03-18T20:14:20.256Z,-2.93
2018-03-18T20:16:49.459Z,-2.88
2018-03-18T20:19:19.315Z,-2.83
2018-03-18T20:21:47.675Z,-2.85
2018-03-18T20:24:16.009Z,-2.95
2018-03-18T20:26:45.148Z,-2.84
2018-03-18T20:29:13.480Z,-2.98
2018-03-18T20:31:42.584Z,-2.87
2018-03-18T20:34:11.666Z,-3.03
2018-03-18T20:36:40.100Z,-3.05
2018-03-18T20:39:09.046Z,-3.14
2018-03-18T20:41:38.191Z,-3.17
2018-03-18T20:44:07.181Z,-3.06
2018-03-18T20:46:35.556Z,-3.15
2018-03-18T20:49:04.688Z,-3.12
2018-03-18T20:51:33.528Z,-3.09
2018-03-18T20:54:01.891Z,-3.15
2018-03-18T20:56:31.256Z,-3.16
2018-03-18T20:58:59.633Z,-3.29
2018-03-18T21:01:27.947Z,-3.26
2018-03-18T21:03:57.083Z,-3.29
2018-03-18T21:06:25.482Z,-3.27
2018-03-18T21:08:53.833Z,-3.37
2018-03-18T21:11:22.180Z,-3.47
2018-03-18T21:13:50.506Z,-3.66
2018-03-18T21:16:18.879Z,-3.35
2018-03-18T21:18:47.644Z,-3.39
2018-03-18T21:21:15.985Z,-3.69
2018-03-18T21:23:45.544Z,-3.71
2018-03-18T21:26:13.899Z,-3.68
2018-03-18T21:28:42.213Z,-3.86
2018-03-18T21:31:10.574Z,-3.90
2018-03-18T21:33:38.895Z,-3.65
2018-03-18T21:36:08.035Z,-3.77
2018-03-18T21:38:36.359Z,-3.76
2018-03-18T21:41:05.500Z,-3.71
2018-03-18T21:43:33.846Z,-3.68
2018-03-18T21:46:03.014Z,-3.80
2018-03-18T21:48:31.364Z,-3.93
2018-03-18T21:50:59.673Z,-3.94
2018-03-18T21:53:28.036Z,-3.98
2018-03-18T21:55:56.412Z,-3.92
2018-03-18T21:58:24.754Z,-3.86
2018-03-18T22:00:53.088Z,-3.84
2018-03-18T22:03:21.398Z,-3.77
2018-03-18T22:05:49.808Z,-3.81
2018-03-18T22:08:18.166Z,-4.02
2018-03-18T22:10:46.487Z,-4.08
2018-03-18T22:13:14.849Z,-3.93
2018-03-18T22:15:43.189Z,-4.08
2018-03-18T22:18:11.519Z,-4.10
2018-03-18T22:20:39.875Z,-4.03
2018-03-18T22:23:08.210Z,-4.22
2018-03-18T22:25:36.614Z,-4.13
2018-03-18T22:28:05.739Z,-4.18
2018-03-18T22:30:34.051Z,-4.11
2018-03-18T22:33:02.415Z,-4.05
2018-03-18T22:35:30.793Z,-4.00
2018-03-18T22:37:59.231Z,-4.22
2018-03-18T22:40:27.553Z,-4.07
2018-03-18T22:42:55.882Z,-4.39
2018-03-18T22:45:24.253Z,-4.11
2018-03-18T22:47:52.578Z,-4.22
2018-03-18T22:50:20.923Z,-4.22
2018-03-18T22:52:49.351Z,-4.22
2018-03-18T22:55:18.496Z,-4.37
2018-03-18T22:57:46.846Z,-4.21
2018-03-18T23:00:19.093Z,-4.25
2018-03-18T23:02:47.451Z,-4.36
2018-03-18T23:05:15.759Z,-4.39
2018-03-18T23:07:44.862Z,-4.17
2018-03-18T23:10:13.962Z,-4.29
2018-03-18T23:12:42.316Z,-4.29
2018-03-18T23:15:11.408Z,-4.33
2018-03-18T23:17:39.780Z,-4.27
2018-03-18T23:20:08.117Z,-4.39
2018-03-18T23:22:36.466Z,-4.38
2018-03-18T23:25:04.835Z,-4.33
2018-03-18T23:27:33.923Z,-4.27
2018-03-18T23:30:03.090Z,-4.24
2018-03-18T23:32:31.412Z,-4.26
2018-03-18T23:34:59.779Z,-4.28
2018-03-18T23:37:28.869Z,-4.20
2018-03-18T23:39:57.213Z,-4.26
2018-03-18T23:42:25.594Z,-4.43
2018-03-18T23:44:53.922Z,-4.42
2018-03-18T23:47:22.262Z,-4.41
2018-03-18T23:49:50.634Z,-4.34
2018-03-18T23:52:18.999Z,-4.54
2018-03-18T23:54:47.330Z,-4.51
2018-03-18T23:57:15.681Z,-4.52
2018-03-18T23:59:44.667Z,-4.63
